Cartagena, Colombia

8:22 AM COT on December 29, 2014 (GMT -0500)
Rafael Nunez | Change Station
CLOSE
Current Station
Airport
Location: Cartagena,
Elevation: 39 ft
Nearby Weather Stations

Elev 39 ft 10.45 °N, 75.52 °W | Updated 22 minutes ago

Clear
Clear
82 °F
Feels Like 91 °F
N
4
Wind Variable Wind from ENE

Today
High -- | Low -- °F
--% Chance of Precip.
Yesterday
High -- | Low -- °F
Precip. -- in
6:18 AM 5:49 PM
First Quarter, 59% visible
Pressure 29.88 in
Visibility 6.2 miles
Clouds
Heat Index 91 °F
Dew Point 77 °F
Humidity 84%
Rainfall 0.00 in
Snow Depth Not available.
UV Not available.
Pollen Not available.
Air Quality Not available.
Flu Activity Not available.
METAR SKCG 291300Z 06003KT 9999 NSC 28/25 A2988

More Conditions Fewer Conditions

Pressure 29.88 in
Visibility 6.2 miles
Clouds
Heat Index 91 °F
Dew Point 77 °F
Humidity 84%
Rainfall 0.00 in
Snow Depth Not available.
UV Not available.
Pollen Not available.
Air Quality Not available.
Flu Activity Not available.
METAR SKCG 291300Z 06003KT 9999 NSC 28/25 A2988

More Conditions Fewer Conditions

10-Day Weather Forecast

Almanac

Astronomy

Dec. 29, 2014 Rise Set
Actual Time
Civil Twilight
Nautical Twilight
Astronomical Twilight
Moon
Length of Visible Light
Length of Day
Tomorrow will be .
, % of the Moon is Illuminated

Today's Extremes

Country Highs Country Lows

Community

WunderPhotos

Upload Photos

1,781,579 photos uploaded!

WunderBlogs® & News

Nearby

Air Quality

  Air Quality AQ Index Pollutant
Not available.

Snow Depth

Station Depth Elevation

Earthquake Activity

City Distance Mag. Time & Date
Minimum magnitude displayed is 2.5.

Coastal Water Temperatures

Place Temperature

Nearby Weather Stations